createdAt,value
2023-01-27T00:01:02.851Z,11.17
2023-01-27T00:03:32.398Z,7.80
2023-01-27T00:06:01.952Z,9.57
2023-01-27T00:08:31.669Z,9.87
2023-01-27T00:11:16.573Z,10.43
2023-01-27T00:13:46.173Z,10.20
2023-01-27T00:16:15.714Z,12.30
2023-01-27T00:18:45.272Z,13.20
2023-01-27T00:21:27.151Z,9.87
2023-01-27T00:24:09.162Z,10.63
2023-01-27T00:26:41.303Z,12.40
2023-01-27T00:29:10.880Z,12.97
2023-01-27T00:31:52.846Z,15.07
2023-01-27T00:34:22.543Z,11.90
2023-01-27T00:36:52.058Z,12.23
2023-01-27T00:39:21.576Z,11.33
2023-01-27T00:41:53.723Z,10.53
2023-01-27T00:44:24.026Z,13.93
2023-01-27T00:46:53.620Z,9.83
2023-01-27T00:49:23.202Z,12.60
2023-01-27T00:51:52.783Z,15.93
2023-01-27T00:54:22.458Z,13.63
2023-01-27T00:56:54.512Z,14.27
2023-01-27T00:59:24.185Z,12.47
2023-01-27T01:01:54.913Z,15.37
2023-01-27T01:04:24.548Z,15.57
2023-01-27T01:06:54.037Z,13.47
2023-01-27T01:09:23.485Z,13.67
2023-01-27T01:11:55.901Z,13.73
2023-01-27T01:14:25.423Z,17.17
2023-01-27T01:16:56.359Z,13.73
2023-01-27T01:19:25.912Z,15.30
2023-01-27T01:21:55.403Z,12.70
2023-01-27T01:24:26.092Z,11.93
2023-01-27T01:26:58.253Z,14.40
2023-01-27T01:29:27.848Z,9.60
2023-01-27T01:31:57.276Z,13.50
2023-01-27T01:34:26.776Z,16.47
2023-01-27T01:36:56.231Z,15.70
2023-01-27T01:39:25.689Z,14.00
2023-01-27T01:41:55.168Z,11.47
2023-01-27T01:44:28.376Z,12.27
2023-01-27T01:46:58.088Z,9.43
2023-01-27T01:49:31.067Z,12.63
2023-01-27T01:52:01.458Z,10.30
2023-01-27T01:54:32.912Z,8.20
2023-01-27T01:57:05.019Z,7.77
2023-01-27T01:59:38.798Z,7.17
2023-01-27T02:02:09.789Z,6.90
2023-01-27T02:04:41.633Z,6.87
2023-01-27T02:07:12.730Z,8.43
2023-01-27T02:09:42.291Z,7.40
2023-01-27T02:12:11.733Z,6.73
2023-01-27T02:14:44.728Z,7.40
2023-01-27T02:17:16.006Z,7.33
2023-01-27T02:19:49.739Z,6.30
2023-01-27T02:22:23.180Z,8.17
2023-01-27T02:24:55.777Z,7.67
2023-01-27T02:27:27.873Z,7.43
2023-01-27T02:29:57.448Z,8.97
2023-01-27T02:32:27.467Z,7.87
2023-01-27T02:34:59.356Z,5.80
2023-01-27T02:37:29.241Z,6.70
2023-01-27T02:39:59.342Z,7.33
2023-01-27T02:42:31.455Z,7.77
2023-01-27T02:45:00.985Z,7.27
2023-01-27T02:47:30.487Z,6.53
2023-01-27T02:50:00.267Z,7.43
2023-01-27T02:52:29.729Z,5.33
2023-01-27T02:55:00.885Z,6.43
2023-01-27T02:57:32.999Z,4.93
2023-01-27T03:00:24.840Z,6.20
2023-01-27T03:02:54.347Z,6.53
2023-01-27T03:05:23.918Z,7.70
2023-01-27T03:07:53.862Z,6.90
2023-01-27T03:10:23.324Z,5.80
2023-01-27T03:12:55.857Z,5.97
2023-01-27T03:15:37.939Z,7.63
2023-01-27T03:18:18.919Z,5.17
2023-01-27T03:20:49.488Z,8.83
2023-01-27T03:23:20.481Z,5.73
2023-01-27T03:25:53.635Z,7.30
2023-01-27T03:28:26.963Z,5.90
2023-01-27T03:31:19.746Z,6.93
2023-01-27T03:34:01.652Z,5.90
2023-01-27T03:36:56.376Z,5.77
2023-01-27T03:39:38.896Z,7.90
2023-01-27T03:42:20.888Z,6.37
2023-01-27T03:45:06.980Z,6.20
2023-01-27T03:47:36.555Z,5.17
2023-01-27T03:50:11.250Z,5.97
2023-01-27T03:52:41.551Z,7.00
2023-01-27T03:55:12.112Z,9.77
2023-01-27T03:57:42.027Z,9.03
2023-01-27T04:00:15.030Z,5.97
2023-01-27T04:02:57.173Z,7.03
2023-01-27T04:05:39.149Z,6.80
2023-01-27T04:08:09.833Z,7.70
2023-01-27T04:10:39.271Z,7.10
2023-01-27T04:13:06.144Z,6.10
2023-01-27T04:15:38.422Z,7.80
2023-01-27T04:18:07.983Z,6.80
2023-01-27T04:20:37.577Z,6.20
2023-01-27T04:23:07.098Z,7.10
2023-01-27T04:25:36.925Z,6.37
2023-01-27T04:28:11.077Z,7.27
2023-01-27T04:30:43.239Z,6.17
2023-01-27T04:33:15.442Z,5.87
2023-01-27T04:35:46.643Z,6.63
2023-01-27T04:38:16.276Z,6.17
2023-01-27T04:40:46.208Z,7.13
2023-01-27T04:43:15.988Z,7.23
2023-01-27T04:45:52.763Z,6.70
2023-01-27T04:48:22.332Z,6.53
2023-01-27T04:50:51.810Z,7.17
2023-01-27T04:53:21.675Z,5.67
2023-01-27T04:55:51.867Z,7.73
2023-01-27T04:58:21.331Z,6.57
2023-01-27T05:00:53.414Z,8.53
2023-01-27T05:03:23.020Z,5.63
2023-01-27T05:05:52.535Z,7.20
2023-01-27T05:08:22.040Z,6.57
2023-01-27T05:10:52.613Z,6.43
2023-01-27T05:13:22.096Z,5.53
2023-01-27T05:15:54.259Z,7.10
2023-01-27T05:18:23.871Z,6.70
2023-01-27T05:20:53.398Z,6.90
2023-01-27T05:23:37.985Z,7.93
2023-01-27T05:26:09.010Z,8.27
2023-01-27T05:28:39.378Z,6.67
2023-01-27T05:31:12.296Z,6.47
2023-01-27T05:33:42.166Z,6.80
2023-01-27T05:36:13.750Z,7.80
2023-01-27T05:38:43.320Z,5.97
2023-01-27T05:41:13.980Z,6.67
2023-01-27T05:43:44.559Z,8.10
2023-01-27T05:46:17.723Z,7.87
2023-01-27T05:48:47.863Z,6.23
2023-01-27T05:51:17.795Z,7.13
2023-01-27T05:53:47.521Z,6.17
2023-01-27T05:56:17.608Z,5.73
2023-01-27T05:58:47.269Z,6.30
2023-01-27T06:01:20.483Z,6.63
2023-01-27T06:03:50.455Z,6.43
2023-01-27T06:06:20.645Z,7.63
2023-01-27T06:08:50.418Z,5.80
2023-01-27T06:11:21.201Z,6.57
2023-01-27T06:13:51.089Z,7.20
2023-01-27T06:16:23.788Z,6.27
2023-01-27T06:18:53.549Z,5.13
2023-01-27T06:21:23.077Z,6.90
2023-01-27T06:23:53.650Z,6.43
2023-01-27T06:26:23.404Z,7.00
2023-01-27T06:28:52.864Z,7.00
2023-01-27T06:31:25.549Z,7.33
2023-01-27T06:33:55.258Z,6.47
2023-01-27T06:36:25.034Z,7.63
2023-01-27T06:38:54.731Z,5.43
2023-01-27T06:41:25.009Z,6.50
2023-01-27T06:43:54.658Z,5.00
2023-01-27T06:46:26.847Z,7.10
2023-01-27T06:48:56.445Z,7.47
2023-01-27T06:51:25.946Z,5.80
2023-01-27T06:53:55.449Z,6.97
2023-01-27T06:56:24.945Z,7.67
2023-01-27T06:58:54.560Z,8.57
2023-01-27T07:01:26.694Z,7.43
2023-01-27T07:03:56.345Z,6.10
2023-01-27T07:06:25.831Z,8.60
2023-01-27T07:08:55.649Z,6.67
2023-01-27T07:11:25.724Z,5.80
2023-01-27T07:13:55.618Z,5.77
2023-01-27T07:16:27.756Z,8.53
2023-01-27T07:18:57.425Z,11.90
2023-01-27T07:21:27.570Z,9.63
2023-01-27T07:23:57.116Z,5.97
2023-01-27T07:26:26.554Z,7.17
2023-01-27T07:28:56.052Z,7.20
2023-01-27T07:31:28.656Z,6.23
2023-01-27T07:33:58.217Z,5.20
2023-01-27T07:36:27.759Z,6.10
2023-01-27T07:38:57.289Z,5.97
2023-01-27T07:41:26.752Z,9.00
2023-01-27T07:43:56.231Z,6.47
2023-01-27T07:46:31.995Z,7.10
2023-01-27T07:49:01.536Z,5.90
2023-01-27T07:51:31.007Z,8.47
2023-01-27T07:54:02.086Z,6.03
2023-01-27T07:56:32.360Z,7.27
2023-01-27T07:59:01.941Z,5.23
2023-01-27T08:01:34.155Z,6.77
2023-01-27T08:04:03.744Z,6.07
2023-01-27T08:06:33.179Z,9.30
2023-01-27T08:09:03.273Z,5.37
2023-01-27T08:11:32.766Z,10.80
2023-01-27T08:14:02.232Z,6.70
2023-01-27T08:16:34.369Z,6.87
2023-01-27T08:19:03.987Z,6.07
2023-01-27T08:21:33.537Z,7.20
2023-01-27T08:24:03.392Z,6.87
2023-01-27T08:26:32.890Z,5.43
2023-01-27T08:29:02.348Z,5.63
2023-01-27T08:31:35.126Z,7.30
2023-01-27T08:34:04.784Z,6.27
2023-01-27T08:36:34.362Z,5.30
2023-01-27T08:39:03.900Z,6.03
2023-01-27T08:41:33.369Z,6.77
2023-01-27T08:44:03.003Z,5.90
2023-01-27T08:46:35.257Z,6.27
2023-01-27T08:49:05.265Z,6.87
2023-01-27T08:51:34.772Z,4.90
2023-01-27T08:54:04.412Z,5.70
2023-01-27T08:56:34.139Z,4.93
2023-01-27T08:59:03.940Z,6.20
2023-01-27T09:01:36.205Z,6.57
2023-01-27T09:04:05.876Z,6.63
2023-01-27T09:06:35.457Z,5.87
2023-01-27T09:09:13.808Z,5.33
2023-01-27T09:11:44.366Z,6.70
2023-01-27T09:14:14.483Z,6.10
2023-01-27T09:16:46.592Z,3.80
2023-01-27T09:19:16.158Z,7.23
2023-01-27T09:21:45.676Z,5.67
2023-01-27T09:24:18.044Z,4.83
2023-01-27T09:26:47.813Z,6.27
2023-01-27T09:29:17.338Z,4.53
2023-01-27T09:31:49.982Z,4.43
2023-01-27T09:34:19.830Z,5.13
2023-01-27T09:36:52.372Z,6.93
2023-01-27T09:39:22.808Z,6.30
2023-01-27T09:42:07.107Z,6.53
2023-01-27T09:44:45.742Z,6.03
2023-01-27T09:47:32.232Z,5.50
2023-01-27T09:50:17.095Z,9.70
2023-01-27T09:53:05.315Z,5.53
2023-01-27T09:55:38.655Z,5.63
2023-01-27T09:58:10.574Z,6.43
2023-01-27T10:00:45.757Z,4.87
2023-01-27T10:03:25.370Z,5.33
2023-01-27T10:06:09.791Z,4.73
2023-01-27T10:08:50.533Z,5.60
2023-01-27T10:11:21.996Z,4.67
2023-01-27T10:14:01.031Z,5.20
2023-01-27T10:16:41.114Z,4.17
2023-01-27T10:19:23.781Z,3.47
2023-01-27T10:21:59.600Z,5.00
2023-01-27T10:24:35.552Z,4.20
2023-01-27T10:27:10.416Z,2.90
2023-01-27T10:29:42.914Z,3.30
2023-01-27T10:32:17.474Z,4.13
2023-01-27T10:34:52.983Z,5.33
2023-01-27T10:37:28.378Z,3.97
2023-01-27T10:40:02.734Z,5.93
2023-01-27T10:42:35.918Z,3.07
2023-01-27T10:45:20.461Z,4.13
2023-01-27T10:47:57.231Z,4.43
2023-01-27T10:50:32.410Z,4.87
2023-01-27T10:53:04.959Z,3.87
2023-01-27T10:55:39.443Z,3.07
2023-01-27T10:58:13.003Z,2.97
2023-01-27T11:01:19.248Z,3.10
2023-01-27T11:03:38.206Z,3.73
2023-01-27T11:06:12.283Z,4.30
2023-01-27T11:08:43.556Z,3.63
2023-01-27T11:11:25.714Z,4.00
2023-01-27T11:14:02.729Z,3.40
2023-01-27T11:16:35.462Z,3.87
2023-01-27T11:19:13.147Z,3.67
2023-01-27T11:21:50.577Z,3.23
2023-01-27T11:24:25.454Z,3.43
2023-01-27T11:26:59.227Z,4.47
2023-01-27T11:29:31.872Z,4.80
2023-01-27T11:32:04.579Z,4.30
2023-01-27T11:34:36.837Z,5.37
2023-01-27T11:37:19.632Z,5.00
2023-01-27T11:39:49.330Z,4.87
2023-01-27T11:42:19.081Z,6.70
2023-01-27T11:44:48.603Z,4.23
2023-01-27T11:47:23.171Z,4.73
2023-01-27T11:49:54.445Z,4.40
2023-01-27T11:52:29.201Z,4.00
2023-01-27T11:55:02.699Z,6.23
2023-01-27T11:57:33.083Z,3.60
2023-01-27T12:00:04.415Z,4.40
2023-01-27T12:02:38.057Z,3.00
2023-01-27T12:05:10.587Z,3.63
2023-01-27T12:07:54.429Z,4.07
2023-01-27T12:10:25.185Z,4.27
2023-01-27T12:12:54.921Z,4.10
2023-01-27T12:15:24.946Z,4.83
2023-01-27T12:17:56.948Z,3.37
2023-01-27T12:20:29.562Z,4.27
2023-01-27T12:23:03.897Z,3.43
2023-01-27T12:25:35.128Z,4.07
2023-01-27T12:28:05.638Z,3.30
2023-01-27T12:30:36.548Z,3.30
2023-01-27T12:33:13.880Z,3.80
2023-01-27T12:35:43.414Z,3.77
2023-01-27T12:38:21.288Z,3.40
2023-01-27T12:40:51.334Z,3.27
2023-01-27T12:43:21.664Z,3.80
2023-01-27T12:46:05.267Z,3.87
2023-01-27T12:48:36.562Z,2.90
2023-01-27T12:51:15.440Z,2.60
2023-01-27T12:53:47.740Z,3.27
2023-01-27T12:56:18.464Z,5.17
2023-01-27T12:58:52.266Z,3.10
2023-01-27T13:01:27.410Z,5.17
2023-01-27T13:03:58.994Z,2.83
2023-01-27T13:06:42.341Z,3.30
2023-01-27T13:09:26.326Z,3.20
2023-01-27T13:11:56.808Z,3.17
2023-01-27T13:14:26.433Z,4.13
2023-01-27T13:16:56.578Z,3.17
2023-01-27T13:19:33.588Z,2.97
2023-01-27T13:22:03.347Z,3.07
2023-01-27T13:24:42.155Z,3.50
2023-01-27T13:27:15.831Z,3.13
2023-01-27T13:29:47.980Z,3.90
2023-01-27T13:32:21.207Z,3.67
2023-01-27T13:34:53.459Z,2.53
2023-01-27T13:37:24.805Z,3.97
2023-01-27T13:40:02.819Z,3.60
2023-01-27T13:42:38.431Z,3.13
2023-01-27T13:45:08.920Z,4.03
2023-01-27T13:47:43.168Z,4.50
2023-01-27T13:50:19.831Z,4.07
2023-01-27T13:52:52.012Z,2.53
2023-01-27T13:55:26.745Z,2.90
2023-01-27T13:58:00.743Z,2.97
2023-01-27T14:00:32.150Z,2.90
2023-01-27T14:03:19.213Z,2.87
2023-01-27T14:05:57.938Z,3.97
2023-01-27T14:08:42.524Z,3.20
2023-01-27T14:11:19.364Z,3.40
2023-01-27T14:13:57.734Z,2.80
2023-01-27T14:16:31.076Z,2.70
2023-01-27T14:19:03.216Z,3.33
2023-01-27T14:21:49.312Z,2.70
2023-01-27T14:24:24.466Z,2.90
2023-01-27T14:27:01.005Z,3.93
2023-01-27T14:29:33.148Z,3.37
2023-01-27T14:32:06.559Z,3.50
2023-01-27T14:34:45.788Z,2.90
2023-01-27T14:37:20.727Z,3.77
2023-01-27T14:39:55.188Z,3.00
2023-01-27T14:42:32.686Z,3.43
2023-01-27T14:45:05.417Z,4.03
2023-01-27T14:47:37.770Z,4.30
2023-01-27T14:50:16.238Z,3.83
2023-01-27T14:52:47.736Z,4.07
2023-01-27T14:55:25.089Z,4.03
2023-01-27T14:58:00.132Z,3.70
2023-01-27T15:00:33.946Z,3.50
2023-01-27T15:03:10.664Z,4.37
2023-01-27T15:05:44.359Z,4.07
2023-01-27T15:08:17.293Z,4.20
2023-01-27T15:10:51.825Z,4.40
2023-01-27T15:13:40.749Z,3.73
2023-01-27T15:16:23.393Z,3.93
2023-01-27T15:19:08.025Z,7.03
2023-01-27T15:21:46.849Z,4.30
2023-01-27T15:24:25.686Z,4.70
2023-01-27T15:26:56.283Z,4.57
2023-01-27T15:29:30.843Z,4.47
2023-01-27T15:32:14.931Z,5.47
2023-01-27T15:34:45.572Z,4.60
2023-01-27T15:37:16.059Z,5.47
2023-01-27T15:40:04.353Z,4.93
2023-01-27T15:42:52.431Z,6.50
2023-01-27T15:45:32.175Z,5.27
2023-01-27T15:48:02.827Z,7.50
2023-01-27T15:50:33.816Z,4.97
2023-01-27T15:53:04.289Z,5.30
2023-01-27T15:55:34.782Z,4.03
2023-01-27T15:58:06.729Z,7.70
2023-01-27T16:00:40.660Z,7.73
2023-01-27T16:03:25.605Z,7.17
2023-01-27T16:05:57.327Z,6.20
2023-01-27T16:08:27.670Z,5.43
2023-01-27T16:11:17.207Z,7.03
2023-01-27T16:13:46.763Z,4.47
2023-01-27T16:16:32.012Z,4.53
2023-01-27T16:19:04.871Z,5.23
2023-01-27T16:21:41.056Z,4.57
2023-01-27T16:24:14.801Z,5.13
2023-01-27T16:26:46.042Z,4.07
2023-01-27T16:29:26.765Z,4.83
2023-01-27T16:32:02.038Z,6.27
2023-01-27T16:34:36.104Z,5.60
2023-01-27T16:37:07.398Z,5.53
2023-01-27T16:39:38.972Z,4.27
2023-01-27T16:42:08.948Z,6.90
2023-01-27T16:44:41.931Z,4.70
2023-01-27T16:47:20.297Z,6.03
2023-01-27T16:49:53.192Z,5.57
2023-01-27T16:52:40.435Z,4.77
2023-01-27T16:55:19.249Z,5.30
2023-01-27T16:57:48.792Z,4.10
2023-01-27T17:00:21.675Z,4.17
2023-01-27T17:02:55.103Z,4.17
2023-01-27T17:05:24.928Z,5.17
2023-01-27T17:08:18.947Z,4.80
2023-01-27T17:10:52.196Z,4.07
2023-01-27T17:13:28.288Z,3.30
2023-01-27T17:15:58.098Z,4.30
2023-01-27T17:18:37.537Z,7.67
2023-01-27T17:21:10.766Z,5.23
2023-01-27T17:23:40.921Z,3.67
2023-01-27T17:26:15.623Z,3.30
2023-01-27T17:28:46.613Z,4.67
2023-01-27T17:31:19.210Z,2.70
2023-01-27T17:33:52.524Z,2.67
2023-01-27T17:36:22.109Z,2.67
2023-01-27T17:38:52.953Z,2.67
2023-01-27T17:41:29.757Z,2.20
2023-01-27T17:44:01.657Z,2.63
2023-01-27T17:46:32.860Z,2.50
2023-01-27T17:49:07.146Z,2.77
2023-01-27T17:51:38.459Z,2.53
2023-01-27T17:54:12.029Z,3.20
2023-01-27T17:56:41.963Z,3.00
2023-01-27T17:59:16.872Z,2.63
2023-01-27T18:01:46.668Z,3.00
2023-01-27T18:04:19.334Z,2.77
2023-01-27T18:06:49.188Z,2.80
2023-01-27T18:09:20.904Z,2.77
2023-01-27T18:11:58.875Z,2.93
2023-01-27T18:14:30.733Z,2.30
2023-01-27T18:17:01.022Z,3.43
2023-01-27T18:19:33.205Z,3.10
2023-01-27T18:22:07.031Z,2.80
2023-01-27T18:24:36.859Z,3.20
2023-01-27T18:27:10.962Z,1.87
2023-01-27T18:29:40.992Z,2.90
2023-01-27T18:32:16.492Z,2.90
2023-01-27T18:34:52.542Z,3.30
2023-01-27T18:37:27.184Z,2.57
2023-01-27T18:39:57.313Z,3.10
2023-01-27T18:42:28.483Z,3.07
2023-01-27T18:44:58.437Z,2.80
2023-01-27T18:47:29.696Z,3.43
2023-01-27T18:50:04.034Z,3.83
2023-01-27T18:52:33.882Z,3.60
2023-01-27T18:55:04.731Z,2.97
2023-01-27T18:57:34.241Z,3.30
2023-01-27T19:00:05.240Z,2.60
2023-01-27T19:02:34.880Z,3.60
2023-01-27T19:05:07.439Z,3.53
2023-01-27T19:07:37.272Z,3.53
2023-01-27T19:10:09.051Z,2.77
2023-01-27T19:12:38.591Z,3.00
2023-01-27T19:15:08.749Z,2.50
2023-01-27T19:17:38.302Z,3.73
2023-01-27T19:20:18.640Z,2.70
2023-01-27T19:22:48.261Z,3.30
2023-01-27T19:25:17.858Z,3.50
2023-01-27T19:27:48.723Z,2.90
2023-01-27T19:30:28.183Z,3.30
2023-01-27T19:32:58.219Z,3.17
2023-01-27T19:35:32.417Z,2.17
2023-01-27T19:38:02.824Z,2.43
2023-01-27T19:40:32.540Z,2.40
2023-01-27T19:43:02.066Z,2.77
2023-01-27T19:45:31.745Z,2.30
2023-01-27T19:48:02.121Z,2.70
2023-01-27T19:50:34.915Z,2.97
2023-01-27T19:53:04.704Z,3.23
2023-01-27T19:55:34.869Z,2.87
2023-01-27T19:58:05.064Z,2.73
2023-01-27T20:00:36.617Z,2.73
2023-01-27T20:03:06.776Z,2.37
2023-01-27T20:05:38.946Z,2.07
2023-01-27T20:08:08.661Z,2.80
2023-01-27T20:10:38.233Z,2.97
2023-01-27T20:13:08.640Z,2.60
2023-01-27T20:15:41.049Z,2.27
2023-01-27T20:18:10.713Z,2.47
2023-01-27T20:20:44.362Z,3.07
2023-01-27T20:23:14.232Z,2.63
2023-01-27T20:25:43.817Z,1.87
2023-01-27T20:28:13.369Z,2.63
2023-01-27T20:30:44.069Z,2.50
2023-01-27T20:33:13.657Z,2.83
2023-01-27T20:35:45.780Z,2.37
2023-01-27T20:38:15.467Z,2.20
2023-01-27T20:40:44.993Z,2.40
2023-01-27T20:43:21.150Z,2.70
2023-01-27T20:45:56.190Z,3.63
2023-01-27T20:48:25.945Z,3.43
2023-01-27T20:51:03.464Z,2.83
2023-01-27T20:53:34.463Z,3.87
2023-01-27T20:56:04.411Z,4.43
2023-01-27T20:58:33.935Z,3.30
2023-01-27T21:01:08.319Z,4.03
2023-01-27T21:03:38.539Z,2.67
2023-01-27T21:06:11.551Z,3.10
2023-01-27T21:08:42.643Z,2.60
2023-01-27T21:11:15.984Z,2.30
2023-01-27T21:13:45.705Z,3.20
2023-01-27T21:16:15.339Z,3.37
2023-01-27T21:18:44.930Z,3.13
2023-01-27T21:21:23.982Z,2.90
2023-01-27T21:23:53.675Z,4.37
2023-01-27T21:26:23.164Z,3.43
2023-01-27T21:28:52.730Z,3.40
2023-01-27T21:31:24.416Z,3.43
2023-01-27T21:33:54.137Z,4.90
2023-01-27T21:36:26.320Z,4.33
2023-01-27T21:38:57.098Z,3.50
2023-01-27T21:41:39.727Z,4.03
2023-01-27T21:44:22.131Z,4.07
2023-01-27T21:46:52.030Z,3.83
2023-01-27T21:49:21.620Z,3.30
2023-01-27T21:51:53.763Z,3.43
2023-01-27T21:54:23.544Z,2.80
2023-01-27T21:56:53.152Z,2.67
2023-01-27T21:59:22.663Z,3.00
2023-01-27T22:01:55.311Z,2.77
2023-01-27T22:04:24.895Z,2.30
2023-01-27T22:06:57.084Z,3.30
2023-01-27T22:09:26.662Z,3.10
2023-01-27T22:11:56.120Z,2.27
2023-01-27T22:14:25.722Z,2.70
2023-01-27T22:16:55.365Z,3.60
2023-01-27T22:19:24.927Z,2.67
2023-01-27T22:21:57.153Z,3.27
2023-01-27T22:24:27.246Z,3.00
2023-01-27T22:26:56.741Z,2.50
2023-01-27T22:29:26.241Z,2.67
2023-01-27T22:31:56.202Z,3.07
2023-01-27T22:34:25.702Z,3.13
2023-01-27T22:36:57.808Z,2.83
2023-01-27T22:39:27.350Z,2.87
2023-01-27T22:41:56.791Z,3.73
2023-01-27T22:44:26.811Z,3.33
2023-01-27T22:46:56.263Z,2.70
2023-01-27T22:49:25.825Z,2.43
2023-01-27T22:51:57.935Z,2.50
2023-01-27T22:54:27.448Z,3.50
2023-01-27T22:56:56.894Z,2.43
2023-01-27T22:59:26.721Z,4.53
2023-01-27T23:01:56.242Z,6.53
2023-01-27T23:04:25.734Z,4.97
2023-01-27T23:06:55.269Z,3.17
2023-01-27T23:09:27.432Z,3.70
2023-01-27T23:11:57.070Z,2.60
2023-01-27T23:14:26.511Z,2.60
2023-01-27T23:16:55.994Z,2.87
2023-01-27T23:19:25.566Z,2.60
2023-01-27T23:21:55.173Z,3.03
2023-01-27T23:24:27.424Z,2.60
2023-01-27T23:26:56.985Z,3.10
2023-01-27T23:29:29.016Z,3.00
2023-01-27T23:31:59.003Z,2.43
2023-01-27T23:34:28.495Z,2.77
2023-01-27T23:36:57.940Z,3.23
2023-01-27T23:39:30.070Z,4.37
2023-01-27T23:41:59.608Z,4.17
2023-01-27T23:44:29.058Z,3.40
2023-01-27T23:46:58.668Z,3.17
2023-01-27T23:49:28.185Z,2.47
2023-01-27T23:51:57.669Z,2.70
2023-01-27T23:54:27.255Z,3.03
2023-01-27T23:56:59.376Z,3.13
2023-01-27T23:59:28.948Z,3.23
